Time;durP1;ratioP1;P1;durP2;ratioP2;P2;SDS_P1;SDS_P2;PMS_P1;PMS_P2;Temp;Humidity;BMP_temperature;BMP_pressure;BME280_temperature;BME280_humidity;BME280_pressure;Samples;Min_cycle;Max_cycle;Signal;HPM_P1;HPM_P2
2022/02/06 00:00:41;;;;;;;86.65;40.38;;;;;;;4.69;87.16;98058.25;4972266;28;20521;-77
2022/02/06 00:03:07;;;;;;;95.60;42.15;;;;;;;4.66;86.94;98060.13;4988290;28;20037;-77
2022/02/06 00:05:33;;;;;;;94.55;40.88;;;;;;;4.71;87.52;98058.19;4995538;28;20399;-76
2022/02/06 00:08:01;;;;;;;86.18;40.85;;;;;;;4.67;88.40;98073.34;4994529;28;20085;-76
2022/02/06 00:10:27;;;;;;;87.05;39.38;;;;;;;4.63;89.44;98082.28;4995225;28;20033;-78
2022/02/06 00:12:53;;;;;;;129.02;58.33;;;;;;;4.56;90.47;98078.09;4978378;28;20502;-78
2022/02/06 00:15:21;;;;;;;161.52;70.10;;;;;;;4.52;91.36;98071.16;4990391;28;20413;-76
2022/02/06 00:17:48;;;;;;;136.98;62.72;;;;;;;4.56;92.01;98075.44;4975080;28;20571;-77
2022/02/06 00:20:15;;;;;;;119.38;52.55;;;;;;;4.52;92.36;98079.09;4989464;28;20033;-77
2022/02/06 00:22:45;;;;;;;99.30;45.70;;;;;;;4.46;93.24;98067.81;4983578;28;20052;-77
2022/02/06 00:27:53;;;;;;;100.28;45.45;;;;;;;4.41;94.74;98077.66;4997463;28;20050;-76
2022/02/06 00:30:28;;;;;;;74.97;34.25;;;;;;;4.53;93.55;98091.41;4979537;28;20037;-76
2022/02/06 00:33:02;;;;;;;76.32;38.28;;;;;;;4.39;93.83;98075.06;4993452;28;20033;-76
2022/02/06 00:39:01;;;;;;;86.18;39.78;;;;;;;4.50;93.67;98075.63;4995990;28;20441;-78
2022/02/06 00:41:22;;;;;;;75.93;35.42;;;;;;;4.47;92.81;98078.34;4986646;28;20025;-77
2022/02/06 00:43:48;;;;;;;68.22;32.95;;;;;;;4.39;93.31;98083.00;4992557;28;20457;-77
2022/02/06 00:46:16;;;;;;;75.72;35.00;;;;;;;4.29;93.38;98082.41;4991029;28;20108;-77
2022/02/06 00:48:58;;;;;;;68.22;33.35;;;;;;;4.24;93.99;98084.34;4988745;28;20032;-76
2022/02/06 00:53:52;;;;;;;68.65;32.40;;;;;;;4.23;95.00;98076.41;4989279;28;20505;-77
2022/02/06 00:56:18;;;;;;;63.03;31.27;;;;;;;4.23;94.68;98077.28;4984611;28;20026;-77
2022/02/06 00:58:43;;;;;;;63.10;29.35;;;;;;;4.26;93.97;98077.19;5002360;28;20029;-77
2022/02/06 01:01:09;;;;;;;55.47;27.55;;;;;;;4.22;94.80;98087.91;4986234;28;20115;-78
2022/02/06 01:03:35;;;;;;;53.72;25.45;;;;;;;4.23;95.45;98089.66;4990413;28;20112;-76
2022/02/06 01:06:00;;;;;;;56.00;25.83;;;;;;;4.15;95.82;98089.00;4988069;28;20029;-77
2022/02/06 01:08:26;;;;;;;57.13;26.13;;;;;;;4.22;95.84;98094.06;4987166;28;20227;-77
2022/02/06 01:10:52;;;;;;;50.80;24.20;;;;;;;4.27;95.11;98094.84;4988042;28;20105;-77
2022/02/06 01:13:24;;;;;;;50.13;24.17;;;;;;;4.28;95.01;98085.97;4967666;28;20026;-77
2022/02/06 01:15:58;;;;;;;49.05;23.20;;;;;;;4.33;94.27;98083.19;4992263;28;20026;-77
2022/02/06 01:18:33;;;;;;;47.55;23.33;;;;;;;4.26;94.28;98086.91;4987840;28;20041;-77
2022/02/06 01:21:05;;;;;;;49.35;23.50;;;;;;;4.08;94.74;98082.13;4997234;28;20054;-77
2022/02/06 01:23:44;;;;;;;47.92;23.33;;;;;;;4.01;96.37;98088.50;5001856;28;20076;-78
2022/02/06 01:26:21;;;;;;;48.88;22.58;;;;;;;4.00;96.66;98086.78;4996519;28;20057;-77
2022/02/06 01:28:52;;;;;;;46.08;22.73;;;;;;;3.96;96.72;98078.06;4973168;28;20058;-78
2022/02/06 01:33:54;;;;;;;48.88;22.25;;;;;;;3.89;97.54;98088.84;4988798;28;20044;-77
2022/02/06 01:39:05;;;;;;;44.17;22.33;;;;;;;3.96;96.71;98067.47;4993753;28;20073;-78
2022/02/06 01:41:36;;;;;;;52.53;25.50;;;;;;;4.05;95.20;98061.94;4995539;28;20030;-78
2022/02/06 01:44:13;;;;;;;58.92;27.30;;;;;;;3.98;96.08;98070.06;4994108;28;20474;-78
2022/02/06 02:12:52;;;;;;;49.08;26.05;;;;;;;3.83;95.41;98103.09;4997880;28;20083;-76
2022/02/06 02:18:50;;;;;;;56.55;28.25;;;;;;;3.79;96.41;98104.09;4996241;28;20040;-76
2022/02/06 02:43:03;;;;;;;84.55;37.05;;;;;;;4.11;92.08;98114.69;4986869;28;20465;-78
2022/02/06 02:48:11;;;;;;;72.38;32.45;;;;;;;4.31;87.89;98122.06;4995972;28;20600;-78
2022/02/06 02:50:42;;;;;;;51.03;23.20;;;;;;;4.37;84.91;98113.94;4996358;28;20492;-77
2022/02/06 02:53:21;;;;;;;45.03;22.40;;;;;;;4.37;84.30;98112.16;4980474;28;20061;-77
2022/02/06 02:58:29;;;;;;;61.70;25.88;;;;;;;4.44;83.83;98125.25;4996494;28;20134;-77
2022/02/06 03:01:33;;;;;;;47.58;22.23;;;;;;;4.60;81.60;98130.06;4980842;28;20081;-77
2022/02/06 03:03:47;;;;;;;49.50;22.88;;;;;;;4.53;81.86;98128.50;4996020;28;20034;-77
2022/02/06 03:06:13;;;;;;;48.30;22.15;;;;;;;4.54;82.40;98135.53;4979142;28;20563;-77
2022/02/06 03:08:40;;;;;;;46.72;21.20;;;;;;;4.48;82.50;98134.84;4995151;28;20022;-77
2022/02/06 03:11:09;;;;;;;47.58;22.08;;;;;;;4.31;84.50;98137.94;4979757;28;20066;-77
2022/02/06 03:16:16;;;;;;;52.55;26.02;;;;;;;4.09;89.25;98137.66;4998272;28;20510;-78
2022/02/06 03:18:58;;;;;;;56.20;25.60;;;;;;;3.89;91.77;98155.88;4983969;28;20030;-76
2022/02/06 03:21:27;;;;;;;48.05;24.80;;;;;;;3.81;93.14;98144.63;4997519;28;20375;-76
2022/02/06 03:23:56;;;;;;;54.60;28.45;;;;;;;3.83;95.47;98156.91;4995863;28;20125;-79
2022/02/06 03:26:23;;;;;;;58.03;29.00;;;;;;;3.84;95.91;98153.31;4995889;28;20061;-76
2022/02/06 03:28:50;;;;;;;54.92;27.65;;;;;;;3.96;95.00;98156.56;4971436;28;20047;-77
2022/02/06 03:31:16;;;;;;;51.95;26.08;;;;;;;3.83;95.71;98156.91;4987199;28;20030;-76
2022/02/06 03:33:43;;;;;;;37.83;18.50;;;;;;;3.77;93.25;98161.47;4994419;28;20021;-76
2022/02/06 03:36:09;;;;;;;39.85;18.33;;;;;;;3.62;93.01;98154.78;4993184;28;20068;-77
2022/02/06 03:38:35;;;;;;;40.45;20.85;;;;;;;3.53;94.06;98154.16;4995300;28;20441;-76
2022/02/06 03:41:05;;;;;;;41.42;20.70;;;;;;;3.42;94.74;98159.69;4985814;28;20026;-77
2022/02/06 03:46:21;;;;;;;45.35;21.38;;;;;;;3.25;96.43;98168.03;4991106;28;20101;-77
2022/02/06 03:49:13;;;;;;;44.88;21.73;;;;;;;2.97;97.67;98147.53;4996166;28;20038;-78
2022/02/06 03:51:36;;;;;;;45.80;21.58;;;;;;;2.99;98.74;98164.22;4997432;28;20112;-77
2022/02/06 03:54:04;;;;;;;48.38;22.65;;;;;;;2.92;99.39;98152.94;4995753;28;20120;-76
2022/02/06 03:56:32;;;;;;;54.15;24.25;;;;;;;2.87;99.78;98170.63;4995214;28;20065;-76
2022/02/06 03:58:59;;;;;;;56.78;26.67;;;;;;;2.84;99.65;98164.53;4986994;28;20030;-78
2022/02/06 04:01:24;;;;;;;47.75;21.95;;;;;;;2.81;99.00;98164.59;4973020;28;20044;-77
2022/02/06 04:03:50;;;;;;;33.97;15.82;;;;;;;2.84;98.85;98169.81;4994132;28;20460;-77
2022/02/06 04:06:16;;;;;;;37.00;18.23;;;;;;;2.76;98.26;98158.56;4984334;28;20038;-77
2022/02/06 04:08:43;;;;;;;33.50;16.52;;;;;;;2.67;98.95;98163.16;4966404;28;20161;-77
2022/02/06 04:11:13;;;;;;;50.67;22.83;;;;;;;2.55;100.00;98167.81;4983370;28;20397;-80
2022/02/06 04:14:05;;;;;;;59.25;26.48;;;;;;;2.53;100.00;98165.19;4966019;28;20387;-82
2022/02/06 04:16:48;;;;;;;52.47;24.25;;;;;;;2.46;100.00;98152.16;4995684;28;20037;-80
2022/02/06 04:19:20;;;;;;;47.83;22.75;;;;;;;2.37;100.00;98157.63;4994046;28;20097;-81
2022/02/06 04:21:45;;;;;;;41.78;19.08;;;;;;;2.37;100.00;98158.47;4979483;28;20033;-81
2022/02/06 04:24:11;;;;;;;58.13;26.40;;;;;;;2.28;100.00;98171.00;4976712;28;20034;-80
2022/02/06 04:26:37;;;;;;;51.83;24.23;;;;;;;2.23;100.00;98179.00;4975171;28;20117;-80
2022/02/06 04:29:04;;;;;;;35.22;17.73;;;;;;;2.21;100.00;98178.16;5015163;28;20061;-81
2022/02/06 04:31:30;;;;;;;41.65;20.35;;;;;;;2.04;100.00;98160.00;5023470;28;20029;-81
2022/02/06 04:33:55;;;;;;;25.75;13.30;;;;;;;2.11;100.00;98172.19;5018361;28;20030;-81
2022/02/06 04:36:25;;;;;;;25.83;13.52;;;;;;;2.08;100.00;98176.63;5016647;28;20026;-81
2022/02/06 04:41:45;;;;;;;42.53;19.25;;;;;;;2.02;100.00;98182.91;5018787;28;20041;-80
2022/02/06 05:11:22;;;;;;;23.73;12.90;;;;;;;1.73;100.00;98189.56;5010640;28;20087;-80
2022/02/06 05:34:05;;;;;;;34.35;15.93;;;;;;;1.14;100.00;98212.44;5003606;28;20100;-79
2022/02/06 05:36:30;;;;;;;33.13;15.90;;;;;;;1.14;100.00;98217.72;4999205;28;20038;-80
2022/02/06 05:38:56;;;;;;;35.63;16.90;;;;;;;1.02;100.00;98196.81;5021269;28;20093;-81
2022/02/06 05:41:21;;;;;;;45.63;19.58;;;;;;;1.08;100.00;98205.50;5009673;28;20038;-81
2022/02/06 05:43:49;;;;;;;57.15;26.45;;;;;;;1.03;100.00;98209.97;5025559;28;20030;-81
2022/02/06 05:46:15;;;;;;;47.28;22.73;;;;;;;0.97;100.00;98210.06;5014171;28;20044;-81
2022/02/06 05:48:40;;;;;;;45.78;22.27;;;;;;;1.01;100.00;98219.66;5022519;28;20477;-80
2022/02/06 05:51:06;;;;;;;41.53;20.88;;;;;;;1.07;100.00;98226.59;5019332;28;20036;-80
2022/02/06 05:53:32;;;;;;;60.70;24.02;;;;;;;1.05;100.00;98208.19;5002137;28;20044;-80
2022/02/06 05:55:59;;;;;;;55.58;25.27;;;;;;;1.06;100.00;98195.88;5002008;28;20113;-80
2022/02/06 05:58:24;;;;;;;62.08;28.40;;;;;;;1.19;100.00;98210.63;5015235;28;20052;-80
2022/02/06 06:00:50;;;;;;;57.78;27.30;;;;;;;1.28;100.00;98209.63;5018026;28;20474;-80
2022/02/06 06:03:16;;;;;;;66.75;31.35;;;;;;;1.59;100.00;98226.72;5001486;28;20088;-80
2022/02/06 06:05:41;;;;;;;69.80;31.00;;;;;;;1.73;100.00;98221.19;5017245;28;20030;-80
2022/02/06 06:08:07;;;;;;;61.95;29.20;;;;;;;1.71;100.00;98223.00;5017618;28;20124;-80
2022/02/06 06:10:32;;;;;;;47.83;22.83;;;;;;;1.72;100.00;98220.34;5017629;28;20060;-80
2022/02/06 06:13:00;;;;;;;51.70;21.60;;;;;;;1.73;100.00;98231.75;5018762;28;20081;-80
2022/02/06 06:15:27;;;;;;;53.10;22.58;;;;;;;1.76;100.00;98239.59;5019766;28;20035;-80
2022/02/06 06:17:55;;;;;;;45.15;20.73;;;;;;;1.81;100.00;98229.88;5017213;28;20033;-81
2022/02/06 06:20:21;;;;;;;54.30;24.88;;;;;;;1.83;100.00;98234.22;4993560;28;20033;-76
2022/02/06 06:22:48;;;;;;;57.47;24.63;;;;;;;1.91;100.00;98227.03;4987558;28;20034;-76
2022/02/06 06:25:14;;;;;;;55.13;24.67;;;;;;;1.91;100.00;98231.44;5016975;28;20037;-75
2022/02/06 06:27:39;;;;;;;43.00;20.52;;;;;;;1.89;100.00;98239.41;5033131;28;20061;-76
2022/02/06 06:30:06;;;;;;;75.93;30.67;;;;;;;1.92;100.00;98247.25;5015948;28;20079;-76
2022/02/06 06:32:31;;;;;;;51.78;22.55;;;;;;;2.04;99.48;98240.91;5010984;28;20033;-77
2022/02/06 06:34:57;;;;;;;49.17;22.88;;;;;;;2.44;98.66;98255.13;4997812;28;20038;-76
2022/02/06 06:37:24;;;;;;;48.97;23.52;;;;;;;4.29;90.14;98251.00;5013431;28;20025;-77
2022/02/06 06:39:50;;;;;;;45.88;20.27;;;;;;;6.57;75.78;98245.81;5015726;28;20018;-77
2022/02/06 06:42:16;;;;;;;48.25;21.42;;;;;;;8.60;63.97;98238.72;5035448;28;20080;-87
2022/02/06 06:44:43;;;;;;;48.45;20.30;;;;;;;10.09;56.42;98208.59;4999116;28;20070;-75
2022/02/06 06:47:09;;;;;;;45.90;23.38;;;;;;;11.87;50.44;98208.09;5007811;28;20505;-74
2022/02/06 06:49:35;;;;;;;50.03;21.25;;;;;;;11.98;48.24;98194.94;5015213;28;20043;-79
2022/02/06 06:52:02;;;;;;;56.17;27.67;;;;;;;11.73;48.33;98205.31;4997584;28;20501;-79
2022/02/06 06:54:36;;;;;;;68.30;31.02;;;;;;;10.53;50.90;98211.75;4995157;28;20381;-85
2022/02/06 06:57:27;;;;;;;62.38;30.95;;;;;;;11.94;48.07;98207.63;5017143;28;20029;-85
2022/02/06 07:04:50;;;;;;;69.25;33.03;;;;;;;11.43;48.79;98208.72;5001939;28;20123;-80
2022/02/06 07:07:16;;;;;;;65.90;33.53;;;;;;;12.04;47.76;98207.97;5016031;28;20498;-80
2022/02/06 07:09:42;;;;;;;62.95;34.83;;;;;;;13.04;45.40;98189.41;4993585;28;20033;-79
2022/02/06 07:12:10;;;;;;;77.60;40.15;;;;;;;12.23;46.35;98203.28;4999253;28;20365;-80
2022/02/06 07:14:36;;;;;;;85.35;45.10;;;;;;;12.14;47.01;98203.81;5016424;28;20123;-80
2022/02/06 07:17:03;;;;;;;82.38;41.38;;;;;;;11.96;47.49;98207.56;4997267;28;20036;-80
2022/02/06 07:19:29;;;;;;;53.55;29.40;;;;;;;11.92;47.61;98192.59;4982157;28;20025;-80
2022/02/06 07:21:55;;;;;;;52.75;27.77;;;;;;;12.44;46.53;98202.03;5011210;28;20103;-80
2022/02/06 07:24:21;;;;;;;46.42;26.10;;;;;;;12.59;46.38;98197.56;5005543;28;20560;-79
2022/02/06 07:26:51;;;;;;;47.63;25.73;;;;;;;12.36;46.85;98198.97;5012518;28;20021;-78
2022/02/06 07:29:17;;;;;;;35.88;19.60;;;;;;;12.68;45.93;98196.16;5015882;28;20111;-77
2022/02/06 07:31:45;;;;;;;29.48;16.77;;;;;;;12.64;45.61;98184.75;5015043;28;20038;-78
2022/02/06 07:34:23;;;;;;;30.05;17.13;;;;;;;13.04;44.60;98175.97;4998376;28;20390;-77
2022/02/06 07:36:48;;;;;;;33.85;17.75;;;;;;;11.94;47.25;98210.31;4999467;28;20504;-77
2022/02/06 07:39:14;;;;;;;43.78;19.25;;;;;;;13.36;44.35;98186.59;4999725;28;20037;-77
2022/02/06 07:41:39;;;;;;;45.35;27.38;;;;;;;14.10;42.24;98176.38;5001476;28;20049;-78
2022/02/06 07:44:06;;;;;;;29.83;16.92;;;;;;;12.69;44.27;98171.91;4990708;28;20044;-78
2022/02/06 07:46:41;;;;;;;31.60;17.38;;;;;;;13.45;43.98;98191.38;5006182;28;20117;-77
2022/02/06 07:49:07;;;;;;;32.75;18.33;;;;;;;15.35;39.73;98161.41;5008215;28;20025;-78
2022/02/06 07:51:35;;;;;;;30.83;18.65;;;;;;;15.73;38.37;98156.00;5015556;28;20028;-78
2022/02/06 07:54:01;;;;;;;36.88;21.40;;;;;;;15.48;39.39;98161.44;5015533;28;20021;-80
2022/02/06 07:56:27;;;;;;;40.72;21.98;;;;;;;16.37;37.53;98146.66;5015126;28;20060;-80
2022/02/06 07:58:52;;;;;;;36.72;21.98;;;;;;;16.79;36.56;98135.34;5014596;28;20057;-80
2022/02/06 08:01:18;;;;;;;29.58;18.52;;;;;;;15.60;37.69;98145.22;5014908;28;20029;-79
2022/02/06 08:03:44;;;;;;;31.52;20.25;;;;;;;15.12;38.64;98148.72;4999020;28;20032;-80
2022/02/06 08:06:10;;;;;;;40.63;24.08;;;;;;;14.61;39.83;98154.06;4990259;28;20523;-79
2022/02/06 08:08:36;;;;;;;35.80;22.67;;;;;;;14.77;39.48;98126.06;4998626;28;20178;-80
2022/02/06 08:11:03;;;;;;;45.13;25.08;;;;;;;14.84;40.09;98138.16;5009825;28;20119;-80
2022/02/06 08:13:43;;;;;;;39.20;24.42;;;;;;;14.52;39.84;98133.13;5003395;28;20037;-79
2022/02/06 08:16:11;;;;;;;30.33;17.75;;;;;;;14.71;38.84;98126.50;5012221;28;20033;-81
2022/02/06 08:18:40;;;;;;;37.97;19.33;;;;;;;15.09;38.62;98124.69;5011170;28;20036;-79
2022/02/06 08:21:10;;;;;;;32.63;20.38;;;;;;;15.66;38.24;98122.34;5014350;28;20065;-81
2022/02/06 08:23:36;;;;;;;39.72;22.17;;;;;;;14.83;40.02;98133.72;4995669;28;20060;-81
2022/02/06 08:26:03;;;;;;;36.85;21.42;;;;;;;14.82;40.22;98124.81;5008389;28;20021;-79
2022/02/06 08:28:28;;;;;;;31.98;18.55;;;;;;;14.37;39.90;98117.16;5012093;28;20061;-80
2022/02/06 08:30:54;;;;;;;47.05;25.38;;;;;;;14.65;40.08;98139.41;5009733;28;20112;-81
2022/02/06 08:33:20;;;;;;;38.70;23.92;;;;;;;14.67;40.48;98133.94;4997822;28;20032;-80
2022/02/06 08:35:45;;;;;;;31.67;20.02;;;;;;;15.17;39.01;98124.97;5001194;28;20417;-80
2022/02/06 08:38:12;;;;;;;19.17;11.90;;;;;;;15.54;37.42;98124.09;4998312;28;20033;-80
2022/02/06 08:40:39;;;;;;;24.08;14.10;;;;;;;15.31;38.17;98119.50;4994976;28;20029;-79
2022/02/06 08:43:04;;;;;;;22.10;13.63;;;;;;;16.12;36.93;98125.19;4996176;28;20033;-80
2022/02/06 08:45:30;;;;;;;26.00;13.30;;;;;;;16.61;35.98;98106.19;4986252;28;20040;-80
2022/02/06 08:47:56;;;;;;;27.23;14.48;;;;;;;16.53;36.09;98104.00;5001871;28;20408;-80
2022/02/06 08:50:22;;;;;;;18.33;11.15;;;;;;;15.96;36.12;98103.03;4998040;28;20029;-80
2022/02/06 08:52:48;;;;;;;22.08;12.90;;;;;;;15.63;36.64;98096.47;5012856;28;20563;-80
2022/02/06 08:55:14;;;;;;;22.90;12.15;;;;;;;16.02;36.28;98118.78;4989621;28;20037;-80
2022/02/06 08:57:50;;;;;;;25.00;11.68;;;;;;;15.90;36.25;98115.16;4994417;28;20021;-79
2022/02/06 09:00:21;;;;;;;18.05;11.57;;;;;;;16.62;35.85;98111.44;4986822;28;20033;-79
2022/02/06 09:02:47;;;;;;;19.77;10.30;;;;;;;16.60;34.73;98099.91;5009924;28;20028;-80
2022/02/06 09:05:13;;;;;;;23.23;12.25;;;;;;;16.47;34.97;98107.19;5002229;28;20025;-79
2022/02/06 09:07:41;;;;;;;20.63;11.85;;;;;;;17.00;34.35;98104.88;4996086;28;20033;-80
2022/02/06 09:10:08;;;;;;;24.15;12.45;;;;;;;17.89;32.91;98092.19;4994613;28;20588;-79
2022/02/06 09:12:36;;;;;;;23.58;12.18;;;;;;;18.21;32.66;98082.22;5002392;28;20413;-81
2022/02/06 09:15:01;;;;;;;19.10;11.43;;;;;;;18.23;32.80;98090.25;5008020;28;20028;-80
2022/02/06 09:17:27;;;;;;;20.30;10.77;;;;;;;17.79;32.87;98064.16;4998592;28;20116;-79
2022/02/06 09:19:53;;;;;;;17.95;11.02;;;;;;;17.03;33.52;98075.78;4984479;28;20029;-79
2022/02/06 09:22:18;;;;;;;18.52;11.07;;;;;;;18.28;32.55;98082.59;5000855;28;20030;-77
2022/02/06 09:24:44;;;;;;;17.73;9.40;;;;;;;18.15;32.24;98079.22;4981837;28;20865;-77
2022/02/06 09:27:10;;;;;;;17.15;9.20;;;;;;;18.64;31.78;98076.75;4993926;28;20536;-79
2022/02/06 09:29:37;;;;;;;17.63;10.23;;;;;;;18.50;31.32;98065.41;4993056;28;20156;-78
2022/02/06 09:37:07;;;;;;;15.88;9.73;;;;;;;19.71;29.89;98052.78;5008397;28;20139;-78
2022/02/06 09:39:35;;;;;;;21.33;10.63;;;;;;;19.52;30.75;98047.28;5010317;28;20034;-80
2022/02/06 09:42:01;;;;;;;16.67;10.23;;;;;;;18.55;31.79;98049.63;5007439;28;20034;-79
2022/02/06 09:44:30;;;;;;;20.92;10.63;;;;;;;17.19;33.43;98037.56;5003776;28;20390;-79
2022/02/06 09:46:58;;;;;;;23.80;12.35;;;;;;;17.73;32.66;98043.88;5003844;28;20493;-80
2022/02/06 09:49:25;;;;;;;27.92;15.27;;;;;;;18.42;32.32;98037.09;4998928;28;20500;-79
2022/02/06 09:51:51;;;;;;;27.23;16.25;;;;;;;17.96;32.65;98039.28;5006439;28;20020;-78
2022/02/06 09:54:17;;;;;;;38.67;17.63;;;;;;;18.03;32.98;98045.88;4994277;28;20432;-79
2022/02/06 09:56:46;;;;;;;34.53;18.45;;;;;;;19.81;30.97;98031.91;4994548;28;20022;-79
2022/02/06 09:59:20;;;;;;;34.25;16.80;;;;;;;20.20;30.20;98015.66;5007004;28;20029;-79
2022/02/06 10:01:51;;;;;;;45.50;16.88;;;;;;;21.22;29.34;98012.19;5011759;28;20041;-79
2022/02/06 10:04:19;;;;;;;38.42;17.35;;;;;;;21.07;29.50;98012.63;5014326;28;20386;-79
2022/02/06 10:06:49;;;;;;;25.27;14.10;;;;;;;20.91;29.71;98006.13;5001824;28;20045;-80
2022/02/06 10:09:20;;;;;;;28.27;14.25;;;;;;;19.50;30.74;98014.00;5016345;28;20063;-79
2022/02/06 10:11:51;;;;;;;30.70;15.48;;;;;;;19.16;31.29;98009.84;5009079;28;20033;-79
2022/02/06 10:14:17;;;;;;;28.10;16.42;;;;;;;19.18;31.76;98014.16;4999985;28;20041;-80
2022/02/06 10:16:43;;;;;;;32.33;15.07;;;;;;;20.02;30.79;97997.38;4986530;28;20555;-79
2022/02/06 10:19:08;;;;;;;26.98;15.82;;;;;;;19.71;30.55;98000.31;5007002;28;20448;-79
2022/02/06 10:21:35;;;;;;;21.90;13.48;;;;;;;19.11;30.89;97985.84;5012944;28;20048;-80
2022/02/06 10:24:16;;;;;;;27.38;15.20;;;;;;;18.53;32.82;97995.53;4998822;28;20033;-79
2022/02/06 10:31:59;;;;;;;24.05;14.15;;;;;;;19.30;30.89;97979.63;5007876;28;20064;-80
2022/02/06 10:34:30;;;;;;;26.23;15.38;;;;;;;19.52;30.19;97963.16;5011521;28;20508;-79
2022/02/06 10:37:21;;;;;;;24.60;14.98;;;;;;;19.88;30.21;97953.47;4991337;28;20402;-78
2022/02/06 10:40:06;;;;;;;28.30;17.27;;;;;;;21.67;28.01;97947.75;5016997;28;20060;-80
2022/02/06 10:42:39;;;;;;;34.60;19.70;;;;;;;22.59;27.28;97943.63;5002877;28;20029;-79
2022/02/06 10:45:19;;;;;;;;;;;;;;;21.01;28.81;97947.94;4998839;28;20048;-80
2022/02/06 10:47:47;;;;;;;38.13;20.25;;;;;;;20.58;29.96;97946.84;4999168;28;19913;-80
2022/02/06 10:50:19;;;;;;;28.58;18.38;;;;;;;20.14;30.41;97934.72;4982262;28;20030;-80
2022/02/06 10:52:45;;;;;;;32.28;21.17;;;;;;;20.03;30.39;97936.59;5004719;28;20497;-79
2022/02/06 10:55:14;;;;;;;32.53;18.48;;;;;;;20.46;30.11;97933.41;4998677;28;20026;-80
2022/02/06 10:57:54;;;;;;;27.02;14.65;;;;;;;20.19;30.82;97929.69;5001445;28;20493;-81
2022/02/06 11:00:28;;;;;;;26.75;16.08;;;;;;;20.99;29.54;97928.19;5004573;28;20025;-80
2022/02/06 11:03:00;;;;;;;22.15;14.63;;;;;;;20.12;31.12;97931.31;5005819;28;20080;-80
2022/02/06 11:05:35;;;;;;;;;;;;;;;19.96;32.07;97926.47;5003935;28;20362;-80
2022/02/06 11:08:04;;;;;;;25.48;15.32;;;;;;;20.35;31.10;97921.84;5003754;28;19919;-79
2022/02/06 11:10:35;;;;;;;34.15;18.98;;;;;;;20.30;31.20;97916.00;4998105;28;20122;-80
2022/02/06 11:13:03;;;;;;;26.67;15.32;;;;;;;20.39;30.86;97912.41;4983778;28;20461;-81
2022/02/06 11:15:31;;;;;;;25.48;13.93;;;;;;;20.66;30.11;97906.16;5003232;28;20442;-79
2022/02/06 11:18:15;;;;;;;25.65;15.40;;;;;;;20.43;30.69;97917.38;4981683;28;20029;-79
2022/02/06 11:21:06;;;;;;;26.52;13.70;;;;;;;21.35;29.82;97903.84;5007148;28;20030;-80
2022/02/06 11:23:41;;;;;;;27.73;13.55;;;;;;;21.28;29.55;97897.28;5004203;28;20396;-79
2022/02/06 11:26:27;;;;;;;30.85;16.85;;;;;;;20.35;29.78;97889.25;5004529;28;20513;-80
2022/02/06 11:28:55;;;;;;;39.22;17.00;;;;;;;20.85;29.72;97889.78;4994854;28;20492;-80
2022/02/06 11:31:21;;;;;;;26.08;13.90;;;;;;;20.67;28.14;97875.25;4999528;28;20033;-79
2022/02/06 11:33:47;;;;;;;22.23;15.50;;;;;;;20.53;29.21;97868.44;4995975;28;20037;-79
2022/02/06 11:36:19;;;;;;;23.85;14.98;;;;;;;22.04;27.33;97863.16;4990608;28;20905;-79
2022/02/06 11:45:19;;;;;;;17.27;10.48;;;;;;;20.39;27.82;97855.34;5013689;28;20045;-79
2022/02/06 11:47:49;;;;;;;24.67;12.25;;;;;;;21.98;26.90;97848.31;4983980;28;20043;-79
2022/02/06 11:50:16;;;;;;;24.63;12.93;;;;;;;21.99;26.62;97843.72;5006891;28;20026;-79
2022/02/06 11:52:50;;;;;;;16.90;10.70;;;;;;;21.34;26.64;97836.81;5000526;28;20051;-80
2022/02/06 11:55:39;;;;;;;18.85;11.05;;;;;;;20.98;27.67;97847.59;5009470;28;20065;-80
2022/02/06 11:58:38;;;;;;;12.65;8.40;;;;;;;20.96;27.20;97827.84;5006350;28;20489;-81
2022/02/06 12:01:07;;;;;;;13.93;9.00;;;;;;;21.04;26.89;97829.81;4936284;28;20125;-80
2022/02/06 12:03:50;;;;;;;12.65;7.25;;;;;;;21.42;24.67;97817.81;5017416;28;20034;-78
2022/02/06 12:06:16;;;;;;;20.92;11.10;;;;;;;21.83;23.35;97800.81;5011649;28;20170;-78
2022/02/06 12:09:01;;;;;;;11.73;6.32;;;;;;;20.80;23.99;97789.59;4994888;28;20088;-78
2022/02/06 12:11:28;;;;;;;7.97;4.60;;;;;;;21.25;21.89;97783.31;4994716;28;20033;-78
2022/02/06 12:14:22;;;;;;;10.10;6.57;;;;;;;21.58;21.75;97774.41;5005699;28;20030;-78
2022/02/06 12:17:20;;;;;;;4.80;3.67;;;;;;;22.20;19.43;97764.31;5005187;28;20178;-72
2022/02/06 12:20:09;;;;;;;11.43;3.42;;;;;;;22.60;18.08;97739.94;5025498;28;20105;-76
2022/02/06 12:22:39;;;;;;;3.70;2.88;;;;;;;22.39;17.77;97736.81;5009824;28;20393;-74
2022/02/06 12:25:27;;;;;;;5.13;2.35;;;;;;;22.10;17.51;97727.13;5008985;28;20032;-74
2022/02/06 12:28:18;;;;;;;6.30;2.88;;;;;;;22.05;17.66;97728.63;5015196;28;20122;-74
2022/02/06 12:30:45;;;;;;;3.97;2.60;;;;;;;22.05;17.78;97724.03;5012224;28;20045;-75
2022/02/06 12:33:41;;;;;;;6.43;2.50;;;;;;;21.98;17.95;97719.41;5004508;28;20034;-73
2022/02/06 12:38:51;;;;;;;5.68;2.85;;;;;;;22.18;17.16;97714.56;5007482;28;20032;-77
2022/02/06 12:41:26;;;;;;;37.47;10.98;;;;;;;22.34;17.15;97728.25;4984967;28;20191;-79
2022/02/06 12:43:55;;;;;;;18.77;5.72;;;;;;;22.49;16.90;97707.50;5008273;28;20454;-74
2022/02/06 12:46:25;;;;;;;11.35;5.82;;;;;;;22.92;17.01;97707.31;5003598;28;20086;-75
2022/02/06 12:48:52;;;;;;;5.03;2.58;;;;;;;23.01;16.94;97705.47;5002150;28;20034;-74
2022/02/06 12:51:28;;;;;;;4.05;2.70;;;;;;;22.76;16.97;97704.59;4999308;28;20144;-73
2022/02/06 12:54:08;;;;;;;2.05;1.75;;;;;;;22.09;17.05;97689.97;5006183;28;20033;-72
2022/02/06 12:56:34;;;;;;;2.30;1.73;;;;;;;22.32;17.23;97686.69;5008060;28;20051;-73
2022/02/06 12:59:00;;;;;;;5.32;2.10;;;;;;;22.79;16.95;97684.28;5005671;28;20049;-73
2022/02/06 13:01:42;;;;;;;5.03;2.60;;;;;;;21.83;17.86;97688.28;5001716;28;20065;-75
2022/02/06 13:04:10;;;;;;;3.83;2.27;;;;;;;21.89;17.64;97682.22;4998172;28;20073;-76
2022/02/06 13:06:38;;;;;;;6.68;2.85;;;;;;;22.33;17.26;97677.50;5008871;28;20294;-78
2022/02/06 13:09:07;;;;;;;15.60;7.15;;;;;;;22.24;17.36;97670.31;4984172;28;20037;-79
2022/02/06 13:11:43;;;;;;;6.32;3.95;;;;;;;22.20;17.38;97666.19;5002528;28;20021;-78
2022/02/06 13:17:05;;;;;;;6.20;2.78;;;;;;;22.15;17.08;97650.31;5007636;28;20060;-74
2022/02/06 13:32:33;;;;;;;5.65;3.45;;;;;;;23.17;16.97;97645.41;4983548;28;20116;-73
2022/02/06 13:35:29;;;;;;;18.55;6.50;;;;;;;23.13;17.29;97639.44;5008903;28;20025;-73
2022/02/06 13:38:01;;;;;;;20.40;7.10;;;;;;;22.99;17.24;97623.78;4988075;28;20088;-73
2022/02/06 13:40:31;;;;;;;8.25;4.30;;;;;;;21.69;18.65;97632.53;4985209;28;20036;-73
2022/02/06 13:43:07;;;;;;;5.78;3.38;;;;;;;22.24;18.28;97627.53;4985757;28;20038;-73
2022/02/06 13:45:35;;;;;;;5.65;3.30;;;;;;;22.36;18.63;97623.50;4988279;28;20465;-73
2022/02/06 13:48:01;;;;;;;18.58;7.80;;;;;;;22.10;18.72;97618.13;4959306;28;20030;-74
2022/02/06 13:50:28;;;;;;;11.45;5.93;;;;;;;21.79;18.76;97613.34;4982664;28;20101;-73
2022/02/06 13:53:29;;;;;;;9.80;5.20;;;;;;;21.90;18.48;97605.78;4974973;28;20034;-73
2022/02/06 13:56:04;;;;;;;7.07;4.25;;;;;;;21.38;18.37;97609.59;4961865;28;20422;-74
2022/02/06 13:58:31;;;;;;;7.43;3.17;;;;;;;21.29;18.38;97608.66;4989320;28;20030;-74
2022/02/06 14:01:02;;;;;;;16.95;4.88;;;;;;;21.01;18.81;97609.81;4991516;28;20513;-73
2022/02/06 14:03:48;;;;;;;4.35;2.90;;;;;;;21.04;19.05;97606.75;4991653;28;20482;-73
2022/02/06 14:06:18;;;;;;;6.78;2.80;;;;;;;21.56;18.59;97592.13;4982804;28;20052;-74
2022/02/06 14:09:07;;;;;;;7.40;5.18;;;;;;;21.03;18.94;97589.59;4995003;28;20041;-74
2022/02/06 14:11:34;;;;;;;17.42;7.95;;;;;;;20.68;19.14;97591.47;5008975;28;20030;-72
2022/02/06 14:14:36;;;;;;;12.30;6.85;;;;;;;20.68;19.23;97595.06;4985193;28;20405;-73
2022/02/06 14:17:08;;;;;;;3.77;2.50;;;;;;;19.85;19.32;97581.75;4938905;29;20031;-73
2022/02/06 14:19:44;;;;;;;9.20;6.55;;;;;;;20.00;19.28;97572.09;4975988;28;20050;-73
2022/02/06 14:22:14;;;;;;;8.15;3.92;;;;;;;19.57;19.63;97569.19;4983621;28;20492;-73